This is the latest recevied weather packets stored in our database for station/object VA3BOO. If no packets are shown the sender has not sent any weather packets the latest 10 day(s).
| Time | Temp. | Humidity | Pressure | Rain* | Wind** | Luminosity | Snow |
|---|---|---|---|---|---|---|---|
| 1777581304 | 8.33° C | 81% | 1009.2 hPa | 0 mm | - | 75 W/m² | - |
| 1777581004 | 8.33° C | 81% | 1009.2 hPa | 0 mm | - | 70 W/m² | - |
| 1777580704 | 8.33° C | 80% | 1009.1 hPa | 0 mm | - | 85 W/m² | - |
| 1777580404 | 8.33° C | 79% | 1009.1 hPa | 0 mm | - | 92 W/m² | - |
| 1777580104 | 8.33° C | 79% | 1009.1 hPa | 0 mm | - | 95 W/m² | - |
| 1777579804 | 8.33° C | 79% | 1009.1 hPa | 0 mm | - | 97 W/m² | - |
| 1777579504 | 7.78° C | 80% | 1009.1 hPa | 0 mm | - | 115 W/m² | - |
| 1777579204 | 8.33° C | 79% | 1009 hPa | 0 mm | - | 85 W/m² | - |
| 1777578904 | 8.33° C | 79% | 1009 hPa | 0 mm | - | 64 W/m² | - |
| 1777578604 | 8.33° C | 78% | 1009.2 hPa | 0 mm | - | 64 W/m² | - |
| 1777578304 | 8.33° C | 78% | 1008.9 hPa | 0 mm | - | 86 W/m² | - |
| 1777578004 | 8.33° C | 79% | 1008.9 hPa | 0 mm | - | 89 W/m² | - |
| 1777577704 | 8.33° C | 78% | 1008.9 hPa | 0 mm | - | 85 W/m² | - |
| 1777577404 | 8.33° C | 76% | 1009 hPa | 0 mm | - | 64 W/m² | - |
| 1777577104 | 8.33° C | 75% | 1009 hPa | 0 mm | - | 88 W/m² | - |
| 1777576804 | 8.33° C | 77% | 1009.1 hPa | 0 mm | - | 105 W/m² | - |
| 1777576504 | 8.33° C | 77% | 1009.2 hPa | 0 mm | - | 108 W/m² | - |
| 1777576204 | 8.33° C | 77% | 1009.2 hPa | 0 mm | - | 132 W/m² | - |
| 1777575904 | 8.33° C | 78% | 1009.2 hPa | 0 mm | - | 181 W/m² | - |
| 1777575604 | 8.89° C | 76% | 1009.3 hPa | 0 mm | - | 135 W/m² | - |
| 1777575304 | 9.44° C | 75% | 1009.1 hPa | 0 mm | - | 103 W/m² | - |
| 1777575004 | 10° C | 71% | 1009.1 hPa | 0 mm | - | 110 W/m² | - |
| 1777574704 | 10.56° C | 67% | 1009.1 hPa | 0 mm | - | 155 W/m² | - |
| 1777574404 | 10.56° C | 64% | 1009 hPa | 0 mm | - | 203 W/m² | - |
| 1777574104 | 10° C | 68% | 1009 hPa | 0 mm | - | 226 W/m² | - |
* Rain latest hour (hover to see other rain measurements)
** Current wind speed in m/s (hover to see current wind gust speed)